KODO

Details ICAO KODO
Name ODESSA SCHLEMEYER FLD
Region United States
Timezone America/Chicago (UTC-6.0)
Plans Departing 9
Arriving 9
Stats Elevation 3,004 ft / 916 m (AMSL)
Location 31.920376° -102.386598°
Runways 3
Magnetic Variation 6.338° E
Sunrise 2017-12-12 13:42:05 UTC / 2017-12-12 07:42:05 Local
Sunset 2017-12-12 23:47:35 UTC / 2017-12-12 17:47:35 Local
Advertisement - Login to hide

Runways

ID Width Length Bearing (true) Bearing (mag) Surface Threshold Offset Overrun Length
02 75 ft / 23 m 5,712 ft / 1,741 m 29.54° 23.20° Asphalt 0 ft / 0 m 0 ft / 0 m
11 60 ft / 18 m 3,417 ft / 1,041 m 119.77° 113.43° Asphalt 0 ft / 0 m 0 ft / 0 m
16 75 ft / 23 m 5,016 ft / 1,529 m 164.74° 158.40° Asphalt 0 ft / 0 m 0 ft / 0 m
20 75 ft / 23 m 5,712 ft / 1,741 m 209.55° 203.21° Asphalt 0 ft / 0 m 0 ft / 0 m
29 60 ft / 18 m 3,417 ft / 1,041 m 299.78° 293.44° Asphalt 0 ft / 0 m 2,500 ft / 762 m
34 75 ft / 23 m 5,016 ft / 1,529 m 344.75° 338.41° Asphalt 0 ft / 0 m 0 ft / 0 m

Map

Weather


0- 5 10 15 20 25 30 35+ Temperature / ° C

Clouds and Precipitation
Forecast for 2017-12-13 00:00 UTC. Updated an hour ago

Ground ~20,000 ft ~40,000 ft Winds

METAR

KODO 121953Z AUTO 15004KT 10SM CLR 13/M09 A3041 RMK AO2 SLP285 T01281089

TAF

Not found

Frequencies

Recorded 119.27 MHz ASOS
Clearance 121.70 MHz CLNC DEL
Unicom 123.00 MHz CTAF/UNICOM
Approach 124.60 MHz MIDLAND APP/DEP
Warning: Do not use this data for real-world aviation or navigation. No guarantee of current accuracy is given.